sensor_id;sensor_type;location;lat;lon;timestamp;temperature;humidity
68235;DHT22;55052;52.056;5.296;2023-01-16T00:01:27;6.60;94.90
68235;DHT22;55052;52.056;5.296;2023-01-16T00:03:54;6.60;94.90
68235;DHT22;55052;52.056;5.296;2023-01-16T00:06:21;6.60;94.80
68235;DHT22;55052;52.056;5.296;2023-01-16T00:08:48;6.60;94.80
68235;DHT22;55052;52.056;5.296;2023-01-16T00:11:15;6.60;94.90
68235;DHT22;55052;52.056;5.296;2023-01-16T00:13:42;6.60;94.90
68235;DHT22;55052;52.056;5.296;2023-01-16T00:16:09;6.60;94.90
68235;DHT22;55052;52.056;5.296;2023-01-16T00:18:36;6.60;94.90
68235;DHT22;55052;52.056;5.296;2023-01-16T00:21:03;6.50;94.80
68235;DHT22;55052;52.056;5.296;2023-01-16T00:23:29;6.50;94.80
68235;DHT22;55052;52.056;5.296;2023-01-16T00:25:56;6.50;94.90
68235;DHT22;55052;52.056;5.296;2023-01-16T00:28:23;6.50;94.90
68235;DHT22;55052;52.056;5.296;2023-01-16T00:30:50;6.50;94.90
68235;DHT22;55052;52.056;5.296;2023-01-16T00:33:17;6.50;94.90
68235;DHT22;55052;52.056;5.296;2023-01-16T00:35:46;6.50;94.90
68235;DHT22;55052;52.056;5.296;2023-01-16T00:38:13;6.50;94.90
68235;DHT22;55052;52.056;5.296;2023-01-16T00:40:40;6.40;94.90
68235;DHT22;55052;52.056;5.296;2023-01-16T00:43:06;6.40;94.90
68235;DHT22;55052;52.056;5.296;2023-01-16T00:45:34;6.40;94.90
68235;DHT22;55052;52.056;5.296;2023-01-16T00:48:00;6.40;94.90
68235;DHT22;55052;52.056;5.296;2023-01-16T00:50:27;6.40;95.00
68235;DHT22;55052;52.056;5.296;2023-01-16T00:52:54;6.40;94.90
68235;DHT22;55052;52.056;5.296;2023-01-16T00:55:21;6.40;94.90
68235;DHT22;55052;52.056;5.296;2023-01-16T00:57:47;6.30;94.90
68235;DHT22;55052;52.056;5.296;2023-01-16T01:00:15;6.30;94.90
68235;DHT22;55052;52.056;5.296;2023-01-16T01:02:44;6.30;94.80
68235;DHT22;55052;52.056;5.296;2023-01-16T01:05:11;6.30;94.90
68235;DHT22;55052;52.056;5.296;2023-01-16T01:07:37;6.30;94.90
68235;DHT22;55052;52.056;5.296;2023-01-16T01:10:04;6.20;94.80
68235;DHT22;55052;52.056;5.296;2023-01-16T01:12:31;6.30;94.90
68235;DHT22;55052;52.056;5.296;2023-01-16T01:14:58;6.20;94.80
68235;DHT22;55052;52.056;5.296;2023-01-16T01:17:25;6.30;94.90
68235;DHT22;55052;52.056;5.296;2023-01-16T01:19:51;6.20;94.80
68235;DHT22;55052;52.056;5.296;2023-01-16T01:22:18;6.20;94.90
68235;DHT22;55052;52.056;5.296;2023-01-16T01:24:49;6.20;94.90
68235;DHT22;55052;52.056;5.296;2023-01-16T01:27:16;6.20;94.80
68235;DHT22;55052;52.056;5.296;2023-01-16T01:29:43;6.20;94.80
68235;DHT22;55052;52.056;5.296;2023-01-16T01:32:10;6.20;94.80
68235;DHT22;55052;52.056;5.296;2023-01-16T01:34:37;6.20;94.80
68235;DHT22;55052;52.056;5.296;2023-01-16T01:37:05;6.20;94.80
68235;DHT22;55052;52.056;5.296;2023-01-16T01:39:33;6.10;94.70
68235;DHT22;55052;52.056;5.296;2023-01-16T01:42:00;6.10;94.60
68235;DHT22;55052;52.056;5.296;2023-01-16T01:47:13;6.00;94.60
68235;DHT22;55052;52.056;5.296;2023-01-16T01:49:41;6.00;94.60
68235;DHT22;55052;52.056;5.296;2023-01-16T01:52:08;5.90;94.60
68235;DHT22;55052;52.056;5.296;2023-01-16T01:54:41;5.90;94.60
68235;DHT22;55052;52.056;5.296;2023-01-16T01:57:34;5.90;94.60
68235;DHT22;55052;52.056;5.296;2023-01-16T02:00:04;5.90;94.70
68235;DHT22;55052;52.056;5.296;2023-01-16T02:02:35;5.90;94.70
68235;DHT22;55052;52.056;5.296;2023-01-16T02:05:06;5.90;94.70
68235;DHT22;55052;52.056;5.296;2023-01-16T02:07:33;5.90;94.80
68235;DHT22;55052;52.056;5.296;2023-01-16T02:10:29;5.80;94.70
68235;DHT22;55052;52.056;5.296;2023-01-16T02:12:57;5.80;94.60
68235;DHT22;55052;52.056;5.296;2023-01-16T02:15:25;5.80;94.60
68235;DHT22;55052;52.056;5.296;2023-01-16T02:17:52;5.80;94.70
68235;DHT22;55052;52.056;5.296;2023-01-16T02:26:45;5.70;94.70
68235;DHT22;55052;52.056;5.296;2023-01-16T02:29:52;5.60;94.70
68235;DHT22;55052;52.056;5.296;2023-01-16T02:32:51;5.60;94.70
68235;DHT22;55052;52.056;5.296;2023-01-16T02:35:42;5.60;94.70
68235;DHT22;55052;52.056;5.296;2023-01-16T02:43:56;5.60;94.90
68235;DHT22;55052;52.056;5.296;2023-01-16T02:46:41;5.50;94.80
68235;DHT22;55052;52.056;5.296;2023-01-16T02:49:29;5.50;94.80
68235;DHT22;55052;52.056;5.296;2023-01-16T02:52:11;5.50;94.90
68235;DHT22;55052;52.056;5.296;2023-01-16T02:54:57;5.50;94.90
68235;DHT22;55052;52.056;5.296;2023-01-16T02:57:51;5.50;95.00
68235;DHT22;55052;52.056;5.296;2023-01-16T03:00:17;5.50;95.00
68235;DHT22;55052;52.056;5.296;2023-01-16T03:02:45;5.50;95.00
68235;DHT22;55052;52.056;5.296;2023-01-16T03:05:12;5.50;95.00
68235;DHT22;55052;52.056;5.296;2023-01-16T03:19:25;5.50;95.10
68235;DHT22;55052;52.056;5.296;2023-01-16T03:22:12;5.50;95.00
68235;DHT22;55052;52.056;5.296;2023-01-16T03:24:59;5.50;95.00
68235;DHT22;55052;52.056;5.296;2023-01-16T03:33:06;5.40;95.00
68235;DHT22;55052;52.056;5.296;2023-01-16T03:35:53;5.40;95.00
68235;DHT22;55052;52.056;5.296;2023-01-16T03:38:22;5.40;95.00
68235;DHT22;55052;52.056;5.296;2023-01-16T03:40:51;5.40;95.00
68235;DHT22;55052;52.056;5.296;2023-01-16T03:43:30;5.40;95.00
68235;DHT22;55052;52.056;5.296;2023-01-16T03:46:00;5.40;94.90
68235;DHT22;55052;52.056;5.296;2023-01-16T03:51:08;5.30;94.90
68235;DHT22;55052;52.056;5.296;2023-01-16T03:53:46;5.30;94.90
68235;DHT22;55052;52.056;5.296;2023-01-16T03:56:20;5.30;94.90
68235;DHT22;55052;52.056;5.296;2023-01-16T03:58:51;5.30;95.00
68235;DHT22;55052;52.056;5.296;2023-01-16T04:01:24;5.30;95.00
68235;DHT22;55052;52.056;5.296;2023-01-16T04:03:58;5.30;95.00
68235;DHT22;55052;52.056;5.296;2023-01-16T04:06:44;5.30;95.00
68235;DHT22;55052;52.056;5.296;2023-01-16T04:09:26;5.20;95.00
68235;DHT22;55052;52.056;5.296;2023-01-16T04:11:56;5.20;95.40
68235;DHT22;55052;52.056;5.296;2023-01-16T04:14:24;5.20;95.00
68235;DHT22;55052;52.056;5.296;2023-01-16T04:16:52;5.20;95.00
68235;DHT22;55052;52.056;5.296;2023-01-16T04:19:20;5.20;95.00
68235;DHT22;55052;52.056;5.296;2023-01-16T04:21:48;5.20;95.00
68235;DHT22;55052;52.056;5.296;2023-01-16T04:24:16;5.20;95.00
68235;DHT22;55052;52.056;5.296;2023-01-16T04:26:43;5.20;95.00
68235;DHT22;55052;52.056;5.296;2023-01-16T04:29:10;5.20;95.00
68235;DHT22;55052;52.056;5.296;2023-01-16T04:31:37;5.20;94.90
68235;DHT22;55052;52.056;5.296;2023-01-16T04:34:04;5.20;95.00
68235;DHT22;55052;52.056;5.296;2023-01-16T04:36:31;5.20;94.90
68235;DHT22;55052;52.056;5.296;2023-01-16T04:38:57;5.20;95.00
68235;DHT22;55052;52.056;5.296;2023-01-16T04:41:24;5.20;94.90
68235;DHT22;55052;52.056;5.296;2023-01-16T04:44:07;5.20;95.00
68235;DHT22;55052;52.056;5.296;2023-01-16T04:46:34;5.20;94.90
68235;DHT22;55052;52.056;5.296;2023-01-16T04:49:01;5.10;94.90
68235;DHT22;55052;52.056;5.296;2023-01-16T04:51:28;5.10;94.90
68235;DHT22;55052;52.056;5.296;2023-01-16T04:53:56;5.10;94.90
68235;DHT22;55052;52.056;5.296;2023-01-16T04:56:23;5.10;94.90
68235;DHT22;55052;52.056;5.296;2023-01-16T04:58:49;5.10;94.90
68235;DHT22;55052;52.056;5.296;2023-01-16T05:01:17;5.10;95.00
68235;DHT22;55052;52.056;5.296;2023-01-16T05:03:44;5.10;94.90
68235;DHT22;55052;52.056;5.296;2023-01-16T05:06:11;5.10;94.90
68235;DHT22;55052;52.056;5.296;2023-01-16T05:08:38;5.10;95.00
68235;DHT22;55052;52.056;5.296;2023-01-16T05:11:05;5.10;95.00
68235;DHT22;55052;52.056;5.296;2023-01-16T05:13:32;5.10;95.00
68235;DHT22;55052;52.056;5.296;2023-01-16T05:15:59;5.10;95.00
68235;DHT22;55052;52.056;5.296;2023-01-16T05:18:26;5.10;95.00
68235;DHT22;55052;52.056;5.296;2023-01-16T05:20:53;5.10;95.00
68235;DHT22;55052;52.056;5.296;2023-01-16T05:23:19;5.10;95.00
68235;DHT22;55052;52.056;5.296;2023-01-16T05:25:46;5.10;95.00
68235;DHT22;55052;52.056;5.296;2023-01-16T05:28:14;5.10;95.00
68235;DHT22;55052;52.056;5.296;2023-01-16T05:30:41;5.10;95.00
68235;DHT22;55052;52.056;5.296;2023-01-16T05:33:08;5.10;95.00
68235;DHT22;55052;52.056;5.296;2023-01-16T05:35:35;5.10;95.00
68235;DHT22;55052;52.056;5.296;2023-01-16T05:38:02;5.10;95.00
68235;DHT22;55052;52.056;5.296;2023-01-16T05:40:29;5.10;95.00
68235;DHT22;55052;52.056;5.296;2023-01-16T05:42:55;5.10;95.10
68235;DHT22;55052;52.056;5.296;2023-01-16T05:45:22;5.10;95.00
68235;DHT22;55052;52.056;5.296;2023-01-16T05:47:49;5.20;95.00
68235;DHT22;55052;52.056;5.296;2023-01-16T05:50:16;5.20;95.00
68235;DHT22;55052;52.056;5.296;2023-01-16T05:52:42;5.10;95.10
68235;DHT22;55052;52.056;5.296;2023-01-16T05:55:09;5.20;95.10
68235;DHT22;55052;52.056;5.296;2023-01-16T05:57:36;5.20;95.10
68235;DHT22;55052;52.056;5.296;2023-01-16T06:00:04;5.20;95.10
68235;DHT22;55052;52.056;5.296;2023-01-16T06:02:32;5.20;95.10
68235;DHT22;55052;52.056;5.296;2023-01-16T06:04:59;5.30;95.50
68235;DHT22;55052;52.056;5.296;2023-01-16T06:07:26;5.30;95.20
68235;DHT22;55052;52.056;5.296;2023-01-16T06:09:53;5.30;95.20
68235;DHT22;55052;52.056;5.296;2023-01-16T06:12:20;5.30;95.20
68235;DHT22;55052;52.056;5.296;2023-01-16T06:14:47;5.30;95.20
68235;DHT22;55052;52.056;5.296;2023-01-16T06:17:14;5.30;95.20
68235;DHT22;55052;52.056;5.296;2023-01-16T06:19:43;5.30;95.20
68235;DHT22;55052;52.056;5.296;2023-01-16T06:22:11;5.40;95.30
68235;DHT22;55052;52.056;5.296;2023-01-16T06:24:38;5.40;95.30
68235;DHT22;55052;52.056;5.296;2023-01-16T06:27:05;5.40;95.30
68235;DHT22;55052;52.056;5.296;2023-01-16T06:29:31;5.40;95.30
68235;DHT22;55052;52.056;5.296;2023-01-16T06:31:58;5.50;95.30
68235;DHT22;55052;52.056;5.296;2023-01-16T06:34:25;5.50;95.40
68235;DHT22;55052;52.056;5.296;2023-01-16T06:36:52;5.50;95.40
68235;DHT22;55052;52.056;5.296;2023-01-16T06:39:19;5.60;95.40
68235;DHT22;55052;52.056;5.296;2023-01-16T06:41:45;5.60;95.40
68235;DHT22;55052;52.056;5.296;2023-01-16T06:44:12;5.60;95.40
68235;DHT22;55052;52.056;5.296;2023-01-16T06:46:39;5.60;95.40
68235;DHT22;55052;52.056;5.296;2023-01-16T06:49:10;5.60;95.40
68235;DHT22;55052;52.056;5.296;2023-01-16T06:51:37;5.70;95.40
68235;DHT22;55052;52.056;5.296;2023-01-16T06:54:04;5.70;95.40
68235;DHT22;55052;52.056;5.296;2023-01-16T06:56:31;5.70;95.50
68235;DHT22;55052;52.056;5.296;2023-01-16T06:58:57;5.70;95.50
68235;DHT22;55052;52.056;5.296;2023-01-16T07:01:24;5.70;95.50
68235;DHT22;55052;52.056;5.296;2023-01-16T07:03:51;5.70;95.50
68235;DHT22;55052;52.056;5.296;2023-01-16T07:06:18;5.70;95.50
68235;DHT22;55052;52.056;5.296;2023-01-16T07:08:45;5.80;95.50
68235;DHT22;55052;52.056;5.296;2023-01-16T07:11:15;5.80;95.50
68235;DHT22;55052;52.056;5.296;2023-01-16T07:13:42;5.80;95.50
68235;DHT22;55052;52.056;5.296;2023-01-16T07:16:13;5.70;95.50
68235;DHT22;55052;52.056;5.296;2023-01-16T07:18:59;5.70;95.50
68235;DHT22;55052;52.056;5.296;2023-01-16T07:21:47;5.70;95.60
68235;DHT22;55052;52.056;5.296;2023-01-16T07:24:35;5.70;95.60
68235;DHT22;55052;52.056;5.296;2023-01-16T07:27:05;5.70;95.70
68235;DHT22;55052;52.056;5.296;2023-01-16T07:29:33;5.70;95.70
68235;DHT22;55052;52.056;5.296;2023-01-16T07:32:02;5.70;95.60
68235;DHT22;55052;52.056;5.296;2023-01-16T07:34:30;5.70;95.60
68235;DHT22;55052;52.056;5.296;2023-01-16T07:36:57;5.70;95.70
68235;DHT22;55052;52.056;5.296;2023-01-16T07:39:23;5.70;95.70
68235;DHT22;55052;52.056;5.296;2023-01-16T07:41:50;5.70;95.60
68235;DHT22;55052;52.056;5.296;2023-01-16T07:44:23;5.70;95.60
68235;DHT22;55052;52.056;5.296;2023-01-16T07:46:50;5.60;95.70
68235;DHT22;55052;52.056;5.296;2023-01-16T07:49:17;5.60;95.60
68235;DHT22;55052;52.056;5.296;2023-01-16T07:51:44;5.60;95.70
68235;DHT22;55052;52.056;5.296;2023-01-16T07:54:10;5.60;95.70
68235;DHT22;55052;52.056;5.296;2023-01-16T07:56:38;5.60;95.70
68235;DHT22;55052;52.056;5.296;2023-01-16T07:59:05;5.60;95.70
68235;DHT22;55052;52.056;5.296;2023-01-16T08:01:32;5.60;95.70
68235;DHT22;55052;52.056;5.296;2023-01-16T08:03:59;5.60;95.70
68235;DHT22;55052;52.056;5.296;2023-01-16T08:06:26;5.60;95.80
68235;DHT22;55052;52.056;5.296;2023-01-16T08:08:53;5.60;95.80
68235;DHT22;55052;52.056;5.296;2023-01-16T08:11:19;5.60;95.90
68235;DHT22;55052;52.056;5.296;2023-01-16T08:14:06;5.60;95.90
68235;DHT22;55052;52.056;5.296;2023-01-16T08:16:33;5.60;96.00
68235;DHT22;55052;52.056;5.296;2023-01-16T08:19:00;5.60;96.00
68235;DHT22;55052;52.056;5.296;2023-01-16T08:21:27;5.60;96.00
68235;DHT22;55052;52.056;5.296;2023-01-16T08:23:54;5.60;96.00
68235;DHT22;55052;52.056;5.296;2023-01-16T08:26:21;5.60;96.00
68235;DHT22;55052;52.056;5.296;2023-01-16T08:28:48;5.60;96.00
68235;DHT22;55052;52.056;5.296;2023-01-16T08:31:15;5.60;96.10
68235;DHT22;55052;52.056;5.296;2023-01-16T08:33:45;5.60;96.10
68235;DHT22;55052;52.056;5.296;2023-01-16T08:36:13;5.60;96.10
68235;DHT22;55052;52.056;5.296;2023-01-16T08:38:43;5.60;96.10
68235;DHT22;55052;52.056;5.296;2023-01-16T08:41:10;5.60;96.10
68235;DHT22;55052;52.056;5.296;2023-01-16T08:43:56;5.70;96.20
68235;DHT22;55052;52.056;5.296;2023-01-16T08:46:43;5.60;96.10
68235;DHT22;55052;52.056;5.296;2023-01-16T08:49:31;5.70;96.20
68235;DHT22;55052;52.056;5.296;2023-01-16T08:52:16;5.70;96.30
68235;DHT22;55052;52.056;5.296;2023-01-16T08:54:43;5.70;96.30
68235;DHT22;55052;52.056;5.296;2023-01-16T08:57:10;5.70;96.30
68235;DHT22;55052;52.056;5.296;2023-01-16T08:59:37;5.70;96.40
68235;DHT22;55052;52.056;5.296;2023-01-16T09:02:04;5.70;96.40
68235;DHT22;55052;52.056;5.296;2023-01-16T09:04:34;5.80;96.40
68235;DHT22;55052;52.056;5.296;2023-01-16T09:07:02;5.80;96.50
68235;DHT22;55052;52.056;5.296;2023-01-16T09:09:29;5.80;96.50
68235;DHT22;55052;52.056;5.296;2023-01-16T09:11:56;5.80;96.50
68235;DHT22;55052;52.056;5.296;2023-01-16T09:14:42;5.80;96.60
68235;DHT22;55052;52.056;5.296;2023-01-16T09:17:09;5.80;96.60
68235;DHT22;55052;52.056;5.296;2023-01-16T09:19:36;5.80;96.60
68235;DHT22;55052;52.056;5.296;2023-01-16T09:22:03;5.80;96.70
68235;DHT22;55052;52.056;5.296;2023-01-16T09:24:33;5.80;96.70
68235;DHT22;55052;52.056;5.296;2023-01-16T09:27:02;5.90;96.70
68235;DHT22;55052;52.056;5.296;2023-01-16T09:29:29;5.90;96.80
68235;DHT22;55052;52.056;5.296;2023-01-16T09:31:57;5.90;96.80
68235;DHT22;55052;52.056;5.296;2023-01-16T09:34:24;5.90;96.80
68235;DHT22;55052;52.056;5.296;2023-01-16T09:36:51;5.90;96.80
68235;DHT22;55052;52.056;5.296;2023-01-16T09:39:18;5.90;96.80
68235;DHT22;55052;52.056;5.296;2023-01-16T09:44:54;6.00;96.90
68235;DHT22;55052;52.056;5.296;2023-01-16T09:47:24;6.00;97.00
68235;DHT22;55052;52.056;5.296;2023-01-16T09:50:04;6.10;97.00
68235;DHT22;55052;52.056;5.296;2023-01-16T09:52:34;6.10;97.00
68235;DHT22;55052;52.056;5.296;2023-01-16T09:55:33;6.10;97.00
68235;DHT22;55052;52.056;5.296;2023-01-16T09:58:22;6.10;97.10
68235;DHT22;55052;52.056;5.296;2023-01-16T10:03:29;6.10;97.20
68235;DHT22;55052;52.056;5.296;2023-01-16T10:11:58;6.20;97.20
68235;DHT22;55052;52.056;5.296;2023-01-16T10:14:57;6.20;97.20
68235;DHT22;55052;52.056;5.296;2023-01-16T10:18:05;6.20;97.20
68235;DHT22;55052;52.056;5.296;2023-01-16T10:23:25;6.30;97.30
68235;DHT22;55052;52.056;5.296;2023-01-16T10:34:04;6.30;97.20
68235;DHT22;55052;52.056;5.296;2023-01-16T10:36:37;6.30;97.20
68235;DHT22;55052;52.056;5.296;2023-01-16T10:39:08;6.30;97.20
68235;DHT22;55052;52.056;5.296;2023-01-16T10:41:40;6.30;97.20
68235;DHT22;55052;52.056;5.296;2023-01-16T10:47:23;6.30;97.20
68235;DHT22;55052;52.056;5.296;2023-01-16T10:50:09;6.30;97.20
68235;DHT22;55052;52.056;5.296;2023-01-16T10:52:38;6.30;97.30
68235;DHT22;55052;52.056;5.296;2023-01-16T10:55:06;6.30;97.30
68235;DHT22;55052;52.056;5.296;2023-01-16T10:57:33;6.30;97.30
68235;DHT22;55052;52.056;5.296;2023-01-16T11:00:21;6.30;97.30
68235;DHT22;55052;52.056;5.296;2023-01-16T11:03:08;6.30;97.30
68235;DHT22;55052;52.056;5.296;2023-01-16T11:05:37;6.40;97.30
68235;DHT22;55052;52.056;5.296;2023-01-16T11:08:15;6.30;97.30
68235;DHT22;55052;52.056;5.296;2023-01-16T11:10:45;6.40;97.30
68235;DHT22;55052;52.056;5.296;2023-01-16T11:13:22;6.40;97.30
68235;DHT22;55052;52.056;5.296;2023-01-16T11:18:58;6.40;97.30
68235;DHT22;55052;52.056;5.296;2023-01-16T11:21:31;6.40;97.30
68235;DHT22;55052;52.056;5.296;2023-01-16T11:24:14;6.40;97.30
68235;DHT22;55052;52.056;5.296;2023-01-16T11:26:47;6.40;97.40
68235;DHT22;55052;52.056;5.296;2023-01-16T11:29:19;6.40;97.40
68235;DHT22;55052;52.056;5.296;2023-01-16T11:31:55;6.40;97.40
68235;DHT22;55052;52.056;5.296;2023-01-16T11:34:24;6.40;97.50
68235;DHT22;55052;52.056;5.296;2023-01-16T11:37:01;6.40;97.60
68235;DHT22;55052;52.056;5.296;2023-01-16T11:39:31;6.50;97.70
68235;DHT22;55052;52.056;5.296;2023-01-16T11:42:03;6.60;97.90
68235;DHT22;55052;52.056;5.296;2023-01-16T11:44:51;6.70;98.00
68235;DHT22;55052;52.056;5.296;2023-01-16T11:47:43;6.70;98.00
68235;DHT22;55052;52.056;5.296;2023-01-16T11:50:42;6.80;98.00
68235;DHT22;55052;52.056;5.296;2023-01-16T11:53:13;6.90;98.10
68235;DHT22;55052;52.056;5.296;2023-01-16T11:56:02;6.90;98.00
68235;DHT22;55052;52.056;5.296;2023-01-16T12:01:20;7.00;98.00
68235;DHT22;55052;52.056;5.296;2023-01-16T12:09:19;7.10;97.90
68235;DHT22;55052;52.056;5.296;2023-01-16T12:15:02;7.20;97.90
68235;DHT22;55052;52.056;5.296;2023-01-16T12:26:20;7.20;97.80
68235;DHT22;55052;52.056;5.296;2023-01-16T12:29:06;7.20;97.80
68235;DHT22;55052;52.056;5.296;2023-01-16T12:34:52;7.20;97.70
68235;DHT22;55052;52.056;5.296;2023-01-16T12:37:46;7.20;97.70
68235;DHT22;55052;52.056;5.296;2023-01-16T12:46:00;7.20;97.80
68235;DHT22;55052;52.056;5.296;2023-01-16T12:48:38;7.20;97.80
68235;DHT22;55052;52.056;5.296;2023-01-16T12:56:56;7.20;97.70
68235;DHT22;55052;52.056;5.296;2023-01-16T13:02:24;7.20;97.80
68235;DHT22;55052;52.056;5.296;2023-01-16T13:04:57;7.20;97.80
68235;DHT22;55052;52.056;5.296;2023-01-16T13:07:31;7.30;97.90
68235;DHT22;55052;52.056;5.296;2023-01-16T13:10:04;7.30;98.00
68235;DHT22;55052;52.056;5.296;2023-01-16T13:13:00;7.30;97.90
68235;DHT22;55052;52.056;5.296;2023-01-16T13:15:59;7.30;97.90
68235;DHT22;55052;52.056;5.296;2023-01-16T13:18:37;7.40;98.00
68235;DHT22;55052;52.056;5.296;2023-01-16T13:21:08;7.40;98.00
68235;DHT22;55052;52.056;5.296;2023-01-16T13:23:43;7.40;98.00
68235;DHT22;55052;52.056;5.296;2023-01-16T13:26:14;7.50;98.00
68235;DHT22;55052;52.056;5.296;2023-01-16T13:29:35;7.50;98.10
68235;DHT22;55052;52.056;5.296;2023-01-16T13:31:49;7.50;98.00
68235;DHT22;55052;52.056;5.296;2023-01-16T13:34:29;7.50;98.00
68235;DHT22;55052;52.056;5.296;2023-01-16T13:40:45;7.60;98.00
68235;DHT22;55052;52.056;5.296;2023-01-16T13:43:32;7.60;98.00
68235;DHT22;55052;52.056;5.296;2023-01-16T13:46:19;7.60;98.00
68235;DHT22;55052;52.056;5.296;2023-01-16T13:48:52;7.60;98.00
68235;DHT22;55052;52.056;5.296;2023-01-16T13:51:21;7.70;98.00
68235;DHT22;55052;52.056;5.296;2023-01-16T13:53:55;7.70;97.90
68235;DHT22;55052;52.056;5.296;2023-01-16T13:56:26;7.60;97.90
68235;DHT22;55052;52.056;5.296;2023-01-16T13:59:26;7.70;97.80
68235;DHT22;55052;52.056;5.296;2023-01-16T14:01:56;7.60;97.70
68235;DHT22;55052;52.056;5.296;2023-01-16T14:12:40;7.60;97.60
68235;DHT22;55052;52.056;5.296;2023-01-16T14:18:02;7.50;97.60
68235;DHT22;55052;52.056;5.296;2023-01-16T14:26:08;7.40;97.70
68235;DHT22;55052;52.056;5.296;2023-01-16T14:28:38;7.40;97.70
68235;DHT22;55052;52.056;5.296;2023-01-16T14:31:20;7.40;97.70
68235;DHT22;55052;52.056;5.296;2023-01-16T14:33:47;7.40;97.60
68235;DHT22;55052;52.056;5.296;2023-01-16T14:36:15;7.40;97.60
68235;DHT22;55052;52.056;5.296;2023-01-16T14:38:45;7.40;97.60
68235;DHT22;55052;52.056;5.296;2023-01-16T14:41:19;7.40;97.70
68235;DHT22;55052;52.056;5.296;2023-01-16T14:44:11;7.30;97.70
68235;DHT22;55052;52.056;5.296;2023-01-16T14:50:38;7.40;97.70
68235;DHT22;55052;52.056;5.296;2023-01-16T14:53:24;7.40;97.70
68235;DHT22;55052;52.056;5.296;2023-01-16T14:56:32;7.30;97.70
68235;DHT22;55052;52.056;5.296;2023-01-16T14:59:07;7.30;97.50
68235;DHT22;55052;52.056;5.296;2023-01-16T15:01:40;7.30;97.90
68235;DHT22;55052;52.056;5.296;2023-01-16T15:04:40;7.30;97.60
68235;DHT22;55052;52.056;5.296;2023-01-16T15:07:15;7.30;97.60
68235;DHT22;55052;52.056;5.296;2023-01-16T15:09:43;7.30;97.70
68235;DHT22;55052;52.056;5.296;2023-01-16T15:12:13;7.30;97.60
68235;DHT22;55052;52.056;5.296;2023-01-16T15:14:54;7.30;97.60
68235;DHT22;55052;52.056;5.296;2023-01-16T15:17:30;7.30;97.60
68235;DHT22;55052;52.056;5.296;2023-01-16T15:23:06;7.30;97.60
68235;DHT22;55052;52.056;5.296;2023-01-16T15:25:59;7.20;97.60
68235;DHT22;55052;52.056;5.296;2023-01-16T15:31:17;7.20;97.60
68235;DHT22;55052;52.056;5.296;2023-01-16T15:33:45;7.20;97.70
68235;DHT22;55052;52.056;5.296;2023-01-16T15:36:19;7.20;97.60
68235;DHT22;55052;52.056;5.296;2023-01-16T15:38:49;7.20;97.60
68235;DHT22;55052;52.056;5.296;2023-01-16T15:41:31;7.20;97.60
68235;DHT22;55052;52.056;5.296;2023-01-16T15:44:17;7.20;97.60
68235;DHT22;55052;52.056;5.296;2023-01-16T15:47:16;7.20;97.60
68235;DHT22;55052;52.056;5.296;2023-01-16T15:52:30;7.20;97.70
68235;DHT22;55052;52.056;5.296;2023-01-16T15:54:57;7.20;97.70
68235;DHT22;55052;52.056;5.296;2023-01-16T15:57:24;7.20;97.70
68235;DHT22;55052;52.056;5.296;2023-01-16T15:59:54;7.20;97.70
68235;DHT22;55052;52.056;5.296;2023-01-16T16:02:24;7.20;97.70
68235;DHT22;55052;52.056;5.296;2023-01-16T16:04:55;7.20;97.70
68235;DHT22;55052;52.056;5.296;2023-01-16T16:07:24;7.20;97.70
68235;DHT22;55052;52.056;5.296;2023-01-16T16:09:57;7.20;97.90
68235;DHT22;55052;52.056;5.296;2023-01-16T16:12:24;7.20;97.70
68235;DHT22;55052;52.056;5.296;2023-01-16T16:15:16;7.20;97.70
68235;DHT22;55052;52.056;5.296;2023-01-16T16:18:16;7.20;97.70
68235;DHT22;55052;52.056;5.296;2023-01-16T16:20:44;7.20;97.70
68235;DHT22;55052;52.056;5.296;2023-01-16T16:25:59;7.20;97.60
68235;DHT22;55052;52.056;5.296;2023-01-16T16:28:32;7.20;97.70
68235;DHT22;55052;52.056;5.296;2023-01-16T16:31:29;7.20;97.70
68235;DHT22;55052;52.056;5.296;2023-01-16T16:34:15;7.20;98.00
68235;DHT22;55052;52.056;5.296;2023-01-16T16:36:45;7.20;97.60
68235;DHT22;55052;52.056;5.296;2023-01-16T16:39:39;7.20;97.60
68235;DHT22;55052;52.056;5.296;2023-01-16T16:47:45;7.10;97.60
68235;DHT22;55052;52.056;5.296;2023-01-16T16:50:32;7.10;97.60
68235;DHT22;55052;52.056;5.296;2023-01-16T16:53:12;7.20;97.60
68235;DHT22;55052;52.056;5.296;2023-01-16T16:55:41;7.10;97.60
68235;DHT22;55052;52.056;5.296;2023-01-16T16:58:17;7.10;97.60
68235;DHT22;55052;52.056;5.296;2023-01-16T17:00:45;7.20;97.80
68235;DHT22;55052;52.056;5.296;2023-01-16T17:03:25;7.10;97.60
68235;DHT22;55052;52.056;5.296;2023-01-16T17:05:54;7.10;97.50
68235;DHT22;55052;52.056;5.296;2023-01-16T17:08:26;7.10;97.30
68235;DHT22;55052;52.056;5.296;2023-01-16T17:10:56;7.00;97.00
68235;DHT22;55052;52.056;5.296;2023-01-16T17:13:24;6.90;96.90
68235;DHT22;55052;52.056;5.296;2023-01-16T17:15:54;6.90;96.90
68235;DHT22;55052;52.056;5.296;2023-01-16T17:18:25;6.80;96.90
68235;DHT22;55052;52.056;5.296;2023-01-16T17:20:52;6.70;96.60
68235;DHT22;55052;52.056;5.296;2023-01-16T17:23:20;6.60;96.60
68235;DHT22;55052;52.056;5.296;2023-01-16T17:25:48;6.60;96.70
68235;DHT22;55052;52.056;5.296;2023-01-16T17:28:15;6.50;96.70
68235;DHT22;55052;52.056;5.296;2023-01-16T17:30:42;6.50;96.80
68235;DHT22;55052;52.056;5.296;2023-01-16T17:33:10;6.40;96.80
68235;DHT22;55052;52.056;5.296;2023-01-16T17:35:42;6.40;96.60
68235;DHT22;55052;52.056;5.296;2023-01-16T17:38:19;6.30;96.70
68235;DHT22;55052;52.056;5.296;2023-01-16T17:40:46;6.30;96.70
68235;DHT22;55052;52.056;5.296;2023-01-16T17:43:15;6.20;96.60
68235;DHT22;55052;52.056;5.296;2023-01-16T17:46:09;6.20;96.60
68235;DHT22;55052;52.056;5.296;2023-01-16T17:48:37;6.10;96.50
68235;DHT22;55052;52.056;5.296;2023-01-16T17:51:04;6.10;96.60
68235;DHT22;55052;52.056;5.296;2023-01-16T17:53:32;6.00;96.50
68235;DHT22;55052;52.056;5.296;2023-01-16T17:56:01;6.00;96.50
68235;DHT22;55052;52.056;5.296;2023-01-16T17:58:34;5.90;96.50
68235;DHT22;55052;52.056;5.296;2023-01-16T18:03:41;5.80;96.50
68235;DHT22;55052;52.056;5.296;2023-01-16T18:06:09;5.80;96.60
68235;DHT22;55052;52.056;5.296;2023-01-16T18:08:36;5.80;96.60
68235;DHT22;55052;52.056;5.296;2023-01-16T18:11:04;5.80;96.60
68235;DHT22;55052;52.056;5.296;2023-01-16T18:13:51;5.70;96.60
68235;DHT22;55052;52.056;5.296;2023-01-16T18:16:37;5.70;96.70
68235;DHT22;55052;52.056;5.296;2023-01-16T18:19:22;5.70;96.70
68235;DHT22;55052;52.056;5.296;2023-01-16T18:21:49;5.70;96.70
68235;DHT22;55052;52.056;5.296;2023-01-16T18:24:29;5.70;96.70
68235;DHT22;55052;52.056;5.296;2023-01-16T18:26:57;5.60;96.70
68235;DHT22;55052;52.056;5.296;2023-01-16T18:29:24;5.60;96.70
68235;DHT22;55052;52.056;5.296;2023-01-16T18:31:51;5.60;96.70
68235;DHT22;55052;52.056;5.296;2023-01-16T18:34:36;5.60;96.70
68235;DHT22;55052;52.056;5.296;2023-01-16T18:37:21;5.60;96.70
68235;DHT22;55052;52.056;5.296;2023-01-16T18:39:47;5.60;97.10
68235;DHT22;55052;52.056;5.296;2023-01-16T18:42:32;5.50;96.60
68235;DHT22;55052;52.056;5.296;2023-01-16T18:45:29;5.50;96.70